Terminal Aerodrome Forecast
Issued by NWS

Home | Current Version | Previous Version | Text Only | Print | Product List | Glossary On
Versions: 1 2 3 4 5 6 7 8 9 10 11 12 13 14 15 16 17 18 19
000
FTUS43 KDLH 201200 AAB
TAFHIB
TAF AMD
KHIB 201259Z 2013/2112 31006KT P6SM BKN025
      TEMPO 2013/2014 BKN035
     FM201700 35011KT P6SM BKN035
     FM201900 36010KT P6SM SCT040
     FM202300 02004KT P6SM FEW040
     FM210900 VRB01KT 4SM BR SCT015=

USA.gov is the U.S. government's official web portal to all federal, state and local government web resources and services.